Курумоч

Карта отелей и гостиниц, располагающихся рядом с аэропортом Курумоч :

Курумоч
Самара
Самарская область 53° 30' 6.0012" N, 50° 9' 18" E
Код аэродрома ИКАО
UWWW
Код аэродрома RU
УВВВ
Координаты
N53.50167° E050.15500°
Превышение над уровнем моря
145
Основная полоса
15/33
Курс магнитный
148,5/328,5
Длина основной ВПП
3000
Ширина основной ВПП
48
Покрытие основной ВПП
Твёрдое (железобетон)
Освещение ВПП
Постоянное
Тип: 
Аэродром
Класс аэродрома: 
Международный
Принадлежность: 
ГА
Статус: 
Действующий
Сайт: 
http://airport.samara.ru/
E-mail аэродрома: 
info@uwww.aero
Страна: 
Россия
Регион: 
Самарская область
Город: 
Самара
Дополнительная информация: 
Оператор: ОАО «Международный аэропорт «Курумоч».
Погода: 

Авиационная погода в Самаре

Регион: 
Погода METAR: 
UWWW 241700Z 23002MPS CAVOK 03/M01 Q1013 R33/CLRD60 NOSIG RMK QFE749/0999
Время наблюдения
2021-10-24T17:00:00Z
Температура C
3.0
Точка росы
-1.0
Направление ветра
230
Скорость ветра (узлы)
4
Метео видимость
6.21
Явления погоды
Условия полета
VFR
Аэропорт подробнее: 

Найти трансфер

С помощью этой формы Вы можете найти трансфер из аэропорта Курумоч в город, аэропорт или вокзал:

Карта места

Javascript is required to view this map.

Погода в аэропортах:

Авиационная погода в Синопе

Регион: 
Погода METAR: 
LTCM 241650Z 32008KT 210V360 7000 -SHRA SCT015 BKN025 BKN070 13/11 Q1026
Время наблюдения
2021-10-24T16:50:00Z
Температура C
13.0
Точка росы
11.0
Направление ветра
320
Скорость ветра (узлы)
8
Метео видимость
4.35
Явления погоды
-SHRA
Условия полета
MVFR

Авиационная погода в Краснодаре

Регион: 
Погода METAR: 
URKK 241700Z 36005MPS 9999 -SHRA BKN031CB 06/04 Q1024 R05R/290060 TEMPO 2000 TSRA SCT005 BKN020CB RMK QFE765
Время наблюдения
2021-10-24T17:00:00Z
Температура C
6.0
Точка росы
4.0
Направление ветра
360
Скорость ветра (узлы)
10
Метео видимость
6.21
Явления погоды
-SHRA
Условия полета
VFR
Аэропорт подробнее: 

Авиационная погода в Алматы

Регион: 
Погода METAR: 
UAAA 241500Z VRB01MPS 2100 BR FU NSC 04/01 Q1022 R23L/CLRD65 NOSIG
Время наблюдения
2021-10-24T15:00:00Z
Температура C
4.0
Точка росы
1.0
Направление ветра
0
Скорость ветра (узлы)
2
Метео видимость
1.3
Явления погоды
BR FU
Условия полета
IFR
Аэропорт подробнее: 

Авиационная погода в аэропорту Байкал

Регион: 
Погода METAR: 
UIUU 241700Z 00000MPS 4600 FU FEW043 M03/M04 Q1019 R26/CLRD60 NOSIG RMK QFE720/0960
Время наблюдения
2021-10-24T17:00:00Z
Температура C
-3.0
Точка росы
-4.0
Направление ветра
0
Скорость ветра (узлы)
0
Метео видимость
2.86
Явления погоды
FU
Условия полета
IFR
Аэропорт подробнее: